Time;durP1;ratioP1;P1;durP2;ratioP2;P2;SDS_P1;SDS_P2;PMS_P1;PMS_P2;Temp;Humidity;BMP_temperature;BMP_pressure;BME280_temperature;BME280_humidity;BME280_pressure;Samples;Min_cycle;Max_cycle;Signal;HPM_P1;HPM_P2
2023/07/13 00:01:28;;;;;;;20.13;7.65;;;15.70;91.40;;;;;;5014341;28;20185;-88
2023/07/13 00:03:53;;;;;;;18.50;6.80;;;15.70;91.50;;;;;;5013579;28;20204;-88
2023/07/13 00:06:20;;;;;;;16.83;7.63;;;15.60;91.50;;;;;;5013686;28;20181;-88
2023/07/13 00:08:47;;;;;;;21.45;8.05;;;15.60;91.50;;;;;;5013387;28;20177;-88
2023/07/13 00:11:13;;;;;;;15.30;7.35;;;15.60;91.50;;;;;;5014683;28;20189;-88
2023/07/13 00:13:39;;;;;;;19.48;7.25;;;15.70;91.60;;;;;;5013350;28;20250;-87
2023/07/13 00:16:06;;;;;;;13.90;7.22;;;15.60;91.60;;;;;;5013160;28;20173;-87
2023/07/13 00:18:31;;;;;;;15.70;7.20;;;15.60;91.70;;;;;;5013077;28;20173;-87
2023/07/13 00:21:04;;;;;;;12.98;7.05;;;15.60;91.70;;;;;;5014211;28;20184;-87
2023/07/13 00:23:33;;;;;;;18.42;7.72;;;15.60;91.80;;;;;;5013844;28;20189;-86
2023/07/13 00:25:59;;;;;;;12.73;7.45;;;15.60;91.70;;;;;;5013661;28;20173;-86
2023/07/13 00:28:25;;;;;;;20.88;8.30;;;15.60;91.70;;;;;;5012873;28;20183;-87
2023/07/13 00:30:50;;;;;;;14.90;7.80;;;15.60;91.60;;;;;;5014076;28;20280;-87
2023/07/13 00:33:16;;;;;;;10.65;7.80;;;15.60;91.50;;;;;;5012894;28;20581;-86
2023/07/13 00:35:43;;;;;;;13.60;7.85;;;15.50;91.50;;;;;;5013996;28;20172;-87
2023/07/13 00:38:09;;;;;;;13.68;7.60;;;15.50;91.50;;;;;;5012770;28;20188;-87
2023/07/13 00:40:35;;;;;;;11.43;6.88;;;15.50;91.50;;;;;;5012734;28;20177;-86
2023/07/13 00:43:01;;;;;;;10.68;7.55;;;15.50;91.40;;;;;;5012513;28;20272;-86
2023/07/13 00:45:26;;;;;;;17.05;8.35;;;15.50;91.30;;;;;;5014303;28;20648;-87
2023/07/13 00:47:52;;;;;;;20.92;8.35;;;15.30;91.30;;;;;;5013827;28;20228;-87
2023/07/13 00:50:21;;;;;;;12.88;8.13;;;15.30;91.30;;;;;;5012680;28;20182;-86
2023/07/13 00:52:50;;;;;;;19.67;7.93;;;15.30;91.50;;;;;;5013469;28;20197;-86
2023/07/13 00:55:17;;;;;;;11.00;8.20;;;15.30;91.70;;;;;;5012613;28;20188;-87
2023/07/13 00:57:43;;;;;;;16.08;9.10;;;15.20;92.00;;;;;;5013641;28;20692;-87
2023/07/13 01:00:10;;;;;;;18.77;8.43;;;15.10;92.10;;;;;;5012361;28;20185;-86
2023/07/13 01:02:38;;;;;;;19.15;8.40;;;15.10;92.30;;;;;;5012409;28;20560;-87
2023/07/13 01:05:12;;;;;;;21.58;8.18;;;15.20;92.50;;;;;;5013424;28;20247;-86
2023/07/13 01:07:40;;;;;;;12.30;8.88;;;15.20;92.60;;;;;;5012266;28;20177;-86
2023/07/13 01:10:06;;;;;;;22.45;8.88;;;15.20;92.80;;;;;;5012380;28;20177;-86
2023/07/13 01:12:32;;;;;;;17.65;8.82;;;15.20;92.90;;;;;;5013378;28;20676;-86
2023/07/13 01:15:00;;;;;;;19.20;8.70;;;15.20;93.10;;;;;;5012467;28;20211;-86
2023/07/13 01:17:26;;;;;;;25.50;9.10;;;15.20;93.30;;;;;;5012292;28;20176;-87
2023/07/13 01:19:52;;;;;;;22.25;9.25;;;15.20;93.60;;;;;;5012302;28;20178;-86
2023/07/13 01:22:19;;;;;;;19.05;10.25;;;15.20;93.70;;;;;;5012197;28;20645;-86
2023/07/13 01:24:47;;;;;;;19.15;9.60;;;15.20;94.00;;;;;;5012264;28;20292;-86
2023/07/13 01:27:15;;;;;;;19.52;10.73;;;15.20;94.00;;;;;;5012248;28;20712;-86
2023/07/13 01:29:43;;;;;;;18.20;10.32;;;15.20;94.10;;;;;;5012052;28;20185;-86
2023/07/13 01:32:10;;;;;;;18.85;10.10;;;15.20;94.20;;;;;;5012810;28;20201;-87
2023/07/13 01:34:37;;;;;;;16.23;11.10;;;15.20;94.30;;;;;;5012370;28;20276;-86
2023/07/13 01:37:03;;;;;;;20.30;12.88;;;15.20;94.50;;;;;;5015291;28;20176;-86
2023/07/13 01:39:29;;;;;;;22.42;11.07;;;15.10;94.50;;;;;;5016015;28;20180;-87
2023/07/13 01:41:54;;;;;;;20.83;11.10;;;15.00;94.60;;;;;;5015945;28;20564;-86
2023/07/13 01:44:20;;;;;;;19.75;12.13;;;15.00;94.70;;;;;;5017157;28;20610;-86
2023/07/13 01:46:46;;;;;;;21.08;12.35;;;15.00;94.80;;;;;;5015895;28;20265;-86
2023/07/13 01:49:11;;;;;;;21.60;11.55;;;15.00;94.90;;;;;;5017096;28;20177;-86
2023/07/13 01:51:37;;;;;;;16.20;11.95;;;14.90;94.90;;;;;;5016894;28;20205;-86
2023/07/13 01:54:03;;;;;;;30.80;12.60;;;14.90;95.00;;;;;;5015592;28;20268;-87
2023/07/13 01:56:28;;;;;;;26.75;13.00;;;14.80;95.00;;;;;;5015677;28;20180;-86
2023/07/13 01:58:54;;;;;;;17.02;13.35;;;14.70;95.00;;;;;;5015901;28;20200;-86
2023/07/13 02:01:19;;;;;;;25.30;13.63;;;14.70;95.10;;;;;;5015745;28;20176;-86
2023/07/13 02:03:45;;;;;;;17.90;12.68;;;14.70;95.10;;;;;;5017095;28;20205;-86
2023/07/13 02:06:10;;;;;;;25.67;13.60;;;14.60;95.20;;;;;;5015734;28;20212;-86
2023/07/13 02:08:37;;;;;;;27.23;14.98;;;14.60;95.20;;;;;;5016764;28;20324;-86
2023/07/13 02:11:03;;;;;;;22.25;14.10;;;14.60;95.30;;;;;;5016112;28;20687;-86
2023/07/13 02:13:28;;;;;;;24.30;14.60;;;14.50;95.30;;;;;;5015366;28;20198;-87
2023/07/13 02:15:54;;;;;;;32.17;14.75;;;14.60;95.30;;;;;;5015438;28;20255;-87
2023/07/13 02:18:19;;;;;;;16.65;13.95;;;14.50;95.30;;;;;;5015381;28;20181;-86
2023/07/13 02:20:45;;;;;;;27.65;14.80;;;14.60;95.30;;;;;;5016562;28;20173;-86
2023/07/13 02:23:11;;;;;;;23.23;14.50;;;14.60;95.30;;;;;;5015212;28;20201;-86
2023/07/13 02:25:36;;;;;;;17.17;15.43;;;14.50;95.30;;;;;;5015303;28;20185;-86
2023/07/13 02:28:03;;;;;;;30.53;15.03;;;14.50;95.30;;;;;;5016522;28;20548;-86
2023/07/13 02:30:29;;;;;;;22.53;15.27;;;14.50;95.30;;;;;;5015162;28;20177;-87
2023/07/13 02:32:56;;;;;;;23.47;14.97;;;14.40;95.30;;;;;;5014985;28;20213;-86
2023/07/13 02:35:21;;;;;;;33.70;15.17;;;14.40;95.30;;;;;;5015131;28;20703;-87
2023/07/13 02:37:47;;;;;;;19.80;15.37;;;14.50;95.30;;;;;;5014985;28;20181;-87
2023/07/13 02:40:12;;;;;;;18.97;14.53;;;14.40;95.20;;;;;;5016308;28;20216;-86
2023/07/13 02:42:38;;;;;;;24.23;15.37;;;14.50;95.20;;;;;;5014954;28;20273;-86
2023/07/13 02:45:04;;;;;;;23.40;15.00;;;14.40;95.10;;;;;;5014861;28;20695;-86
2023/07/13 02:47:32;;;;;;;26.27;15.60;;;14.40;95.10;;;;;;5013726;28;20236;-86
2023/07/13 02:49:58;;;;;;;19.80;15.07;;;14.40;95.10;;;;;;5015979;28;20178;-86
2023/07/13 02:52:24;;;;;;;21.20;15.10;;;14.40;95.00;;;;;;5014928;28;20657;-87
2023/07/13 02:54:49;;;;;;;23.13;14.53;;;14.40;94.90;;;;;;5015915;28;20217;-87
2023/07/13 02:57:15;;;;;;;25.27;13.83;;;14.40;94.80;;;;;;5014840;28;20184;-87
2023/07/13 02:59:41;;;;;;;19.67;13.63;;;14.40;94.70;;;;;;5014592;28;20264;-87
2023/07/13 03:02:06;;;;;;;23.57;13.93;;;14.40;94.60;;;;;;5014624;28;20177;-87
2023/07/13 03:04:32;;;;;;;21.57;13.10;;;14.40;94.50;;;;;;5014478;28;20201;-86
2023/07/13 03:06:57;;;;;;;19.27;14.18;;;14.40;94.50;;;;;;5014596;28;20182;-86
2023/07/13 03:09:24;;;;;;;19.00;13.17;;;14.40;94.50;;;;;;5014380;28;20231;-87
2023/07/13 03:11:54;;;;;;;19.80;13.80;;;14.40;94.40;;;;;;5015255;28;20205;-87
2023/07/13 03:14:19;;;;;;;20.07;14.20;;;14.40;94.30;;;;;;5015453;28;20204;-86
2023/07/13 03:16:44;;;;;;;15.40;13.80;;;14.40;94.30;;;;;;5014367;28;20170;-87
2023/07/13 03:19:10;;;;;;;20.13;13.15;;;14.40;94.30;;;;;;5014277;28;20173;-87
2023/07/13 03:21:35;;;;;;;23.05;14.18;;;14.50;94.30;;;;;;5014161;28;20177;-86
2023/07/13 03:24:01;;;;;;;22.55;13.25;;;14.50;94.20;;;;;;5014081;28;20557;-86
2023/07/13 03:26:27;;;;;;;17.93;13.10;;;14.50;94.10;;;;;;5015439;28;20186;-87
2023/07/13 03:28:52;;;;;;;14.52;12.20;;;14.50;94.00;;;;;;5013967;28;20220;-87
2023/07/13 03:31:25;;;;;;;17.63;12.47;;;14.40;93.90;;;;;;5013826;28;20205;-86
2023/07/13 03:33:51;;;;;;;18.60;12.90;;;14.50;93.80;;;;;;5014726;28;20193;-86
2023/07/13 03:36:20;;;;;;;17.60;12.20;;;14.50;93.80;;;;;;5015106;28;20179;-86
2023/07/13 03:38:52;;;;;;;21.13;12.27;;;14.40;93.70;;;;;;5013789;28;20264;-86
2023/07/13 03:41:18;;;;;;;18.03;12.37;;;14.40;93.50;;;;;;5013919;28;20192;-87
2023/07/13 03:43:44;;;;;;;13.43;12.07;;;14.40;93.50;;;;;;5013751;28;20205;-87
2023/07/13 03:46:10;;;;;;;17.42;11.98;;;14.50;93.40;;;;;;5015287;28;20182;-87
2023/07/13 03:48:35;;;;;;;13.82;11.68;;;14.50;93.30;;;;;;5014242;28;20712;-86
2023/07/13 03:51:01;;;;;;;18.07;11.47;;;14.60;93.10;;;;;;5014368;28;20262;-87
2023/07/13 03:53:27;;;;;;;15.63;11.47;;;14.60;92.90;;;;;;5013281;28;20263;-86
2023/07/13 03:55:52;;;;;;;17.98;11.23;;;14.70;92.80;;;;;;5013758;28;20173;-86
2023/07/13 03:58:46;;;;;;;16.98;10.68;;;14.70;92.60;;;;;;5013275;28;20181;-87
2023/07/13 04:01:12;;;;;;;15.45;11.05;;;14.70;92.40;;;;;;5013705;28;20296;-87
2023/07/13 04:03:39;;;;;;;15.35;11.00;;;14.70;92.40;;;;;;5014816;28;20251;-88
2023/07/13 04:06:07;;;;;;;14.53;11.00;;;14.60;92.50;;;;;;5014697;28;20708;-86
2023/07/13 04:08:35;;;;;;;17.43;11.20;;;14.60;92.70;;;;;;5015103;28;20182;-87
2023/07/13 04:11:02;;;;;;;17.80;10.63;;;14.60;92.80;;;;;;5014556;28;20228;-88
2023/07/13 04:13:28;;;;;;;14.50;9.57;;;14.50;92.80;;;;;;5013269;28;20194;-87
2023/07/13 04:15:54;;;;;;;15.80;9.57;;;14.50;92.70;;;;;;5013361;28;20185;-86
2023/07/13 04:18:21;;;;;;;16.47;9.47;;;14.50;92.50;;;;;;5013348;28;20267;-86
2023/07/13 04:20:47;;;;;;;16.63;9.50;;;14.50;92.20;;;;;;5013211;28;20663;-86
2023/07/13 04:23:13;;;;;;;13.83;9.17;;;14.50;92.20;;;;;;5013069;28;20201;-86
2023/07/13 04:25:39;;;;;;;15.37;8.80;;;14.50;92.00;;;;;;5013138;28;20284;-87
2023/07/13 04:28:05;;;;;;;21.47;8.67;;;14.50;91.80;;;;;;5013173;28;20180;-87
2023/07/13 04:30:31;;;;;;;12.67;8.30;;;14.50;91.90;;;;;;5014454;28;20185;-87
2023/07/13 04:32:57;;;;;;;22.07;9.27;;;14.60;91.80;;;;;;5012696;28;20589;-86
2023/07/13 04:35:22;;;;;;;17.47;8.40;;;14.70;91.70;;;;;;5014509;28;20173;-87
2023/07/13 04:37:50;;;;;;;17.60;8.40;;;14.80;91.60;;;;;;5014664;28;20170;-87
2023/07/13 04:40:19;;;;;;;15.90;9.27;;;14.80;91.50;;;;;;5014093;28;20577;-87
2023/07/13 04:42:46;;;;;;;20.38;8.02;;;14.90;91.50;;;;;;5012864;28;20180;-86
2023/07/13 04:45:13;;;;;;;12.20;7.47;;;15.00;91.30;;;;;;5013914;28;20531;-87
2023/07/13 04:47:39;;;;;;;18.33;9.53;;;15.10;91.30;;;;;;5012797;28;20211;-87
2023/07/13 04:50:07;;;;;;;16.38;8.48;;;15.20;91.40;;;;;;5013874;28;20174;-86
2023/07/13 04:52:32;;;;;;;11.93;8.80;;;15.20;91.20;;;;;;5012767;28;20207;-86
2023/07/13 04:54:59;;;;;;;16.20;8.88;;;15.30;91.40;;;;;;5012568;28;20295;-86
2023/07/13 04:57:25;;;;;;;18.55;9.50;;;15.50;91.50;;;;;;5013931;28;20169;-86
2023/07/13 04:59:51;;;;;;;19.10;9.02;;;15.50;91.20;;;;;;5012568;28;20317;-86
2023/07/13 05:02:16;;;;;;;19.10;8.65;;;15.60;91.30;;;;;;5013024;28;20181;-86
2023/07/13 05:04:42;;;;;;;17.58;9.30;;;15.60;91.20;;;;;;5012289;28;20556;-86
2023/07/13 05:07:07;;;;;;;16.73;8.48;;;15.50;90.70;;;;;;5012563;28;20780;-86
2023/07/13 05:09:33;;;;;;;15.10;8.40;;;15.50;90.80;;;;;;5012519;28;20691;-86
2023/07/13 05:11:58;;;;;;;21.55;9.15;;;15.50;90.80;;;;;;5013328;28;20566;-86
2023/07/13 05:14:24;;;;;;;15.02;8.40;;;15.60;91.00;;;;;;5013487;28;20283;-86
2023/07/13 05:16:49;;;;;;;17.00;8.70;;;15.60;91.30;;;;;;5013565;28;20184;-87
2023/07/13 05:19:15;;;;;;;21.58;9.05;;;15.60;91.40;;;;;;5012423;28;20173;-86
2023/07/13 05:21:41;;;;;;;20.40;9.55;;;15.60;91.60;;;;;;5013767;28;20173;-87
2023/07/13 05:24:06;;;;;;;25.30;9.70;;;15.60;91.50;;;;;;5013566;28;20628;-86
2023/07/13 05:26:32;;;;;;;17.83;8.77;;;15.60;91.60;;;;;;5014113;28;20177;-86
2023/07/13 05:28:57;;;;;;;31.02;9.55;;;15.60;91.50;;;;;;5012224;28;20181;-87
2023/07/13 05:31:23;;;;;;;15.30;8.98;;;15.60;91.50;;;;;;5013454;28;20555;-86
2023/07/13 05:33:48;;;;;;;17.15;8.48;;;15.60;91.30;;;;;;5013621;28;20715;-87
2023/07/13 05:36:14;;;;;;;21.35;7.85;;;15.60;91.20;;;;;;5012325;28;20173;-86
2023/07/13 05:38:40;;;;;;;20.70;7.57;;;15.60;91.30;;;;;;5012351;28;20174;-87
2023/07/13 05:41:05;;;;;;;15.60;7.70;;;15.60;91.20;;;;;;5013448;28;20169;-86
2023/07/13 05:43:31;;;;;;;22.67;8.68;;;15.60;91.40;;;;;;5012271;28;20205;-86
2023/07/13 05:45:57;;;;;;;15.30;8.05;;;15.60;91.20;;;;;;5013686;28;20705;-87
2023/07/13 05:48:23;;;;;;;22.00;9.07;;;15.60;91.30;;;;;;5012204;28;20184;-87
2023/07/13 05:50:49;;;;;;;23.42;8.13;;;15.70;91.30;;;;;;5012553;28;20180;-87
2023/07/13 05:53:15;;;;;;;19.80;8.43;;;15.60;91.00;;;;;;5011961;28;20359;-86
2023/07/13 05:55:49;;;;;;;15.68;7.68;;;15.60;90.70;;;;;;5012125;28;20617;-86
2023/07/13 05:58:17;;;;;;;15.68;7.80;;;15.60;90.70;;;;;;5012276;28;20244;-87
2023/07/13 06:00:42;;;;;;;20.73;8.50;;;15.70;90.90;;;;;;5012040;28;20328;-87
2023/07/13 06:03:08;;;;;;;20.98;8.23;;;15.70;90.70;;;;;;5012258;28;20635;-86
2023/07/13 06:05:36;;;;;;;19.50;8.13;;;15.70;90.80;;;;;;5013091;28;20177;-87
2023/07/13 06:08:01;;;;;;;17.85;7.80;;;15.70;90.80;;;;;;5013386;28;20166;-87
2023/07/13 06:10:27;;;;;;;16.98;7.72;;;15.70;90.70;;;;;;5012828;28;20178;-87
2023/07/13 06:12:52;;;;;;;16.67;7.93;;;15.70;90.80;;;;;;5012136;28;20200;-86
2023/07/13 06:15:18;;;;;;;14.63;7.60;;;15.70;90.60;;;;;;5012329;28;20169;-86
2023/07/13 06:17:44;;;;;;;17.40;7.68;;;15.70;90.60;;;;;;5013598;28;20634;-87
2023/07/13 06:20:10;;;;;;;10.60;6.80;;;15.70;90.60;;;;;;5012148;28;20180;-87
2023/07/13 06:22:35;;;;;;;21.95;8.52;;;15.80;90.70;;;;;;5014974;28;20641;-86
2023/07/13 06:25:01;;;;;;;17.23;7.32;;;15.80;90.70;;;;;;5015721;28;20695;-87
2023/07/13 06:27:27;;;;;;;17.75;7.28;;;15.80;90.70;;;;;;5015423;28;20185;-87
2023/07/13 06:29:52;;;;;;;14.82;7.88;;;15.80;90.70;;;;;;5015413;28;20534;-87
2023/07/13 06:32:18;;;;;;;20.95;7.97;;;15.80;90.70;;;;;;5016542;28;20204;-87
2023/07/13 06:34:43;;;;;;;16.42;7.13;;;15.90;90.80;;;;;;5016828;28;20584;-87
2023/07/13 06:37:10;;;;;;;19.17;7.72;;;15.90;90.70;;;;;;5015282;28;20173;-87
2023/07/13 06:39:35;;;;;;;19.67;7.68;;;15.80;90.60;;;;;;5015405;28;20177;-87
2023/07/13 06:42:01;;;;;;;21.05;8.38;;;15.90;90.40;;;;;;5016403;28;20220;-87
2023/07/13 06:44:26;;;;;;;20.92;9.68;;;15.90;90.60;;;;;;5015353;28;20271;-87
2023/07/13 06:46:52;;;;;;;20.23;8.32;;;15.90;90.70;;;;;;5015315;28;20228;-87
2023/07/13 06:49:17;;;;;;;19.23;8.00;;;16.00;90.60;;;;;;5015272;28;20592;-87
2023/07/13 06:51:43;;;;;;;23.80;8.82;;;16.00;90.50;;;;;;5016251;28;20201;-87
2023/07/13 06:54:08;;;;;;;13.93;8.02;;;16.10;90.40;;;;;;5014859;28;20240;-87
2023/07/13 06:56:34;;;;;;;21.92;8.27;;;16.30;90.80;;;;;;5014810;28;20209;-87
2023/07/13 06:58:59;;;;;;;20.52;7.90;;;16.30;90.60;;;;;;5014760;28;20227;-87
2023/07/13 07:01:25;;;;;;;18.45;8.65;;;16.30;90.60;;;;;;5015824;28;20316;-87
2023/07/13 07:03:51;;;;;;;17.73;7.95;;;16.40;90.70;;;;;;5014652;28;20193;-86
2023/07/13 07:06:24;;;;;;;16.35;8.38;;;16.50;90.60;;;;;;5014343;28;20181;-86
2023/07/13 07:08:50;;;;;;;22.58;8.30;;;16.40;90.20;;;;;;5014456;28;20188;-85
2023/07/13 07:11:25;;;;;;;18.73;8.35;;;16.60;90.10;;;;;;5014134;28;20205;-85
2023/07/13 07:13:52;;;;;;;19.08;8.27;;;16.60;90.00;;;;;;5014201;28;20754;-85
2023/07/13 07:16:19;;;;;;;15.60;7.38;;;16.80;89.80;;;;;;5014152;28;20227;-85
2023/07/13 07:18:45;;;;;;;20.10;7.88;;;16.90;89.70;;;;;;5015360;28;20166;-85
2023/07/13 07:21:11;;;;;;;16.98;8.20;;;17.00;89.30;;;;;;5015293;28;20224;-85
2023/07/13 07:23:36;;;;;;;24.75;8.82;;;17.20;89.70;;;;;;5013851;28;20197;-85
2023/07/13 07:26:03;;;;;;;19.75;8.50;;;17.20;89.50;;;;;;5013891;28;20231;-85
2023/07/13 07:28:29;;;;;;;20.52;8.57;;;17.30;89.60;;;;;;5014272;28;20182;-85
2023/07/13 07:30:56;;;;;;;21.33;8.68;;;17.30;88.80;;;;;;5013825;28;20609;-85
2023/07/13 07:33:22;;;;;;;17.40;7.95;;;17.40;89.10;;;;;;5013174;28;20220;-84
2023/07/13 07:35:47;;;;;;;22.05;9.82;;;17.40;88.10;;;;;;5013741;28;20173;-85
2023/07/13 07:38:13;;;;;;;19.77;8.93;;;17.50;88.30;;;;;;5013811;28;20709;-85
2023/07/13 07:40:40;;;;;;;17.95;8.65;;;17.70;88.40;;;;;;5013657;28;20181;-84
2023/07/13 07:43:07;;;;;;;20.92;9.48;;;17.90;88.50;;;;;;5013549;28;20204;-85
2023/07/13 07:45:34;;;;;;;17.63;7.85;;;17.70;87.30;;;;;;5013626;28;20648;-85
2023/07/13 07:47:59;;;;;;;21.98;8.05;;;17.80;88.30;;;;;;5014786;28;20188;-85
2023/07/13 07:50:26;;;;;;;12.73;8.50;;;18.00;87.50;;;;;;5014730;28;20178;-85
2023/07/13 07:52:51;;;;;;;21.88;10.50;;;17.80;87.00;;;;;;5013190;28;20201;-85
2023/07/13 07:55:17;;;;;;;19.65;8.98;;;17.80;86.80;;;;;;5013512;28;20273;-85
2023/07/13 07:57:43;;;;;;;17.02;8.05;;;17.90;86.50;;;;;;5014170;28;20196;-85
2023/07/13 08:00:09;;;;;;;19.13;8.63;;;17.90;86.00;;;;;;5014554;28;20181;-86
2023/07/13 08:02:35;;;;;;;21.20;10.15;;;18.00;86.30;;;;;;5014389;28;20589;-85
2023/07/13 08:05:00;;;;;;;22.02;8.00;;;18.00;86.00;;;;;;5013170;28;20201;-85
2023/07/13 08:07:26;;;;;;;21.77;8.18;;;18.20;87.00;;;;;;5013243;28;20208;-86
2023/07/13 08:09:54;;;;;;;14.32;8.90;;;18.50;86.10;;;;;;5013132;28;20637;-85
2023/07/13 08:12:20;;;;;;;14.90;8.98;;;18.50;85.60;;;;;;5013035;28;20689;-87
2023/07/13 08:14:50;;;;;;;13.25;8.60;;;18.40;84.70;;;;;;5014657;28;20189;-87
2023/07/13 08:17:15;;;;;;;16.92;8.90;;;18.50;84.60;;;;;;5013434;28;20174;-86
2023/07/13 08:19:41;;;;;;;17.63;8.77;;;18.50;85.20;;;;;;5014332;28;20184;-86
2023/07/13 08:22:06;;;;;;;20.55;14.75;;;18.70;84.70;;;;;;5013227;28;20173;-87
2023/07/13 08:24:32;;;;;;;22.60;15.57;;;18.80;84.90;;;;;;5013383;28;20201;-87
2023/07/13 08:26:57;;;;;;;17.83;15.90;;;19.00;84.30;;;;;;5013024;28;20184;-87
2023/07/13 08:29:23;;;;;;;18.42;15.13;;;18.80;84.10;;;;;;5013199;28;20204;-86
2023/07/13 08:31:48;;;;;;;23.90;15.60;;;18.70;84.30;;;;;;5012824;28;20209;-86
2023/07/13 08:34:14;;;;;;;21.13;15.40;;;18.70;84.60;;;;;;5012869;28;20193;-86
2023/07/13 08:36:40;;;;;;;17.85;15.38;;;18.70;84.60;;;;;;5014356;28;20583;-87
2023/07/13 08:39:06;;;;;;;21.38;17.52;;;18.70;84.60;;;;;;5012909;28;20200;-86
2023/07/13 08:41:33;;;;;;;16.80;15.20;;;18.60;83.80;;;;;;5013256;28;20173;-84
2023/07/13 08:44:00;;;;;;;18.50;15.13;;;18.30;83.80;;;;;;5013834;28;20673;-86
2023/07/13 08:46:37;;;;;;;20.38;15.30;;;18.50;83.50;;;;;;5011861;28;20605;-86
2023/07/13 08:49:14;;;;;;;15.80;9.52;;;18.70;83.60;;;;;;5012711;28;20181;-86
2023/07/13 08:52:20;;;;;;;17.40;9.70;;;18.90;82.60;;;;;;5012678;28;20600;-86
2023/07/13 08:54:51;;;;;;;20.25;8.80;;;19.20;83.60;;;;;;5013315;28;20225;-87
2023/07/13 08:57:21;;;;;;;18.73;10.80;;;19.50;82.50;;;;;;5013804;28;20241;-86
2023/07/13 08:59:47;;;;;;;17.08;9.80;;;19.50;81.40;;;;;;5013990;28;20173;-86
2023/07/13 09:02:57;;;;;;;17.45;10.15;;;19.60;81.60;;;;;;5012389;28;20178;-86
2023/07/13 09:05:40;;;;;;;19.75;10.80;;;19.80;80.70;;;;;;5012795;28;20681;-86
2023/07/13 09:08:47;;;;;;;14.00;11.05;;;19.80;79.90;;;;;;5016871;28;20170;-86
2023/07/13 09:11:43;;;;;;;18.38;11.07;;;19.70;79.90;;;;;;5011877;28;20216;-87
2023/07/13 09:14:31;;;;;;;16.35;12.07;;;19.90;80.80;;;;;;5012382;28;20193;-86
2023/07/13 09:16:56;;;;;;;13.85;11.13;;;19.80;78.60;;;;;;5013591;28;20211;-86
2023/07/13 09:19:28;;;;;;;14.77;11.55;;;19.90;78.20;;;;;;5013760;28;20177;-83
2023/07/13 09:21:56;;;;;;;14.80;12.02;;;19.90;78.50;;;;;;5014082;28;20173;-83
2023/07/13 09:24:21;;;;;;;15.80;10.50;;;20.00;77.70;;;;;;5012528;28;20193;-83
2023/07/13 09:26:47;;;;;;;20.23;11.25;;;20.20;78.80;;;;;;5012285;28;20537;-85
2023/07/13 09:29:18;;;;;;;14.88;12.25;;;20.60;78.70;;;;;;5012315;28;20184;-84
2023/07/13 09:31:49;;;;;;;15.65;12.60;;;20.50;76.60;;;;;;5012282;28;20678;-84
2023/07/13 09:34:14;;;;;;;18.85;14.00;;;20.50;75.50;;;;;;5012398;28;20201;-85
2023/07/13 09:36:40;;;;;;;15.82;12.45;;;20.30;73.60;;;;;;5011981;28;20239;-85
2023/07/13 09:39:15;;;;;;;13.95;11.63;;;20.60;75.60;;;;;;5013628;28;20201;-83
2023/07/13 09:41:50;;;;;;;17.55;13.98;;;20.80;73.30;;;;;;5012033;28;20171;-84
2023/07/13 09:44:19;;;;;;;14.73;12.18;;;20.40;72.30;;;;;;5013144;28;20704;-85
2023/07/13 09:46:52;;;;;;;14.68;13.20;;;20.30;75.70;;;;;;5011917;28;20189;-84
2023/07/13 09:49:18;;;;;;;15.65;12.73;;;20.20;71.60;;;;;;5013459;28;20157;-85
2023/07/13 09:51:44;;;;;;;13.65;12.27;;;19.90;74.60;;;;;;5012090;28;20208;-85
2023/07/13 09:54:21;;;;;;;16.55;12.35;;;19.80;76.60;;;;;;5011882;28;20307;-84
2023/07/13 09:56:46;;;;;;;14.00;12.77;;;20.10;76.30;;;;;;5012893;28;20176;-84
2023/07/13 09:59:23;;;;;;;17.25;12.45;;;20.30;72.60;;;;;;5015761;28;20264;-85
2023/07/13 10:01:50;;;;;;;14.75;12.50;;;20.90;74.10;;;;;;5015922;28;20209;-84
2023/07/13 10:04:20;;;;;;;18.33;14.10;;;20.90;73.30;;;;;;5015553;28;20292;-85
2023/07/13 10:06:46;;;;;;;14.32;12.10;;;21.10;72.90;;;;;;5016775;28;20184;-84
2023/07/13 10:09:16;;;;;;;14.45;13.20;;;21.30;72.40;;;;;;5015462;28;20223;-85
2023/07/13 10:11:41;;;;;;;16.10;14.60;;;21.30;70.50;;;;;;5016683;28;20201;-84
2023/07/13 10:14:17;;;;;;;15.07;13.25;;;20.80;70.30;;;;;;5015293;28;20684;-85
2023/07/13 10:16:45;;;;;;;18.48;13.60;;;20.50;73.20;;;;;;5016054;28;20177;-85
2023/07/13 10:19:27;;;;;;;17.60;13.88;;;20.30;72.60;;;;;;5015675;28;20174;-85
2023/07/13 10:21:56;;;;;;;16.17;14.63;;;20.30;72.70;;;;;;5017055;28;20629;-85
2023/07/13 10:24:25;;;;;;;15.20;13.65;;;20.20;72.40;;;;;;5015082;28;20681;-87
2023/07/13 10:27:19;;;;;;;16.73;14.13;;;20.60;72.50;;;;;;5015236;28;20264;-88
2023/07/13 10:30:05;;;;;;;15.60;14.07;;;20.90;72.00;;;;;;5015260;28;20161;-87
2023/07/13 10:32:30;;;;;;;16.52;14.65;;;21.20;69.60;;;;;;5015102;28;20233;-86
2023/07/13 10:35:00;;;;;;;16.55;13.68;;;21.00;69.50;;;;;;5016911;28;20189;-85
2023/07/13 10:37:32;;;;;;;16.08;14.07;;;21.40;71.60;;;;;;5015332;28;20185;-86
2023/07/13 10:40:00;;;;;;;15.95;13.35;;;21.30;70.10;;;;;;5014952;28;20185;-86
2023/07/13 10:42:36;;;;;;;15.95;14.30;;;21.60;71.90;;;;;;5014841;28;20227;-86
2023/07/13 10:45:03;;;;;;;14.75;13.55;;;22.00;69.90;;;;;;5016008;28;20205;-87
2023/07/13 10:47:28;;;;;;;15.80;14.20;;;22.00;67.70;;;;;;5016331;28;20170;-86
2023/07/13 10:49:57;;;;;;;17.42;13.68;;;21.10;66.20;;;;;;5016104;28;20669;-87
2023/07/13 10:52:46;;;;;;;15.93;14.27;;;20.90;66.90;;;;;;5014497;28;20205;-86
2023/07/13 10:55:42;;;;;;;15.23;13.85;;;20.70;68.50;;;;;;5015694;28;20192;-87
2023/07/13 10:58:12;;;;;;;15.65;14.05;;;20.70;68.80;;;;;;5014529;28;20177;-88
2023/07/13 11:00:52;;;;;;;15.15;13.85;;;20.80;68.70;;;;;;5014608;28;20224;-88
2023/07/13 11:03:22;;;;;;;15.13;13.50;;;21.20;68.40;;;;;;5014387;28;20691;-87
2023/07/13 11:06:04;;;;;;;16.63;14.88;;;21.70;67.50;;;;;;5014445;28;20193;-87
2023/07/13 11:08:37;;;;;;;16.40;14.95;;;22.00;65.40;;;;;;5013529;28;20173;-87
2023/07/13 11:11:03;;;;;;;15.48;14.30;;;22.30;66.30;;;;;;5014269;28;20188;-88
2023/07/13 11:13:45;;;;;;;17.52;15.50;;;22.60;64.90;;;;;;5015665;28;20221;-88
2023/07/13 11:16:44;;;;;;;16.88;15.38;;;22.70;65.90;;;;;;5014372;28;20258;-88
2023/07/13 11:19:15;;;;;;;17.35;15.65;;;23.00;64.10;;;;;;5014421;28;20172;-88
2023/07/13 11:22:13;;;;;;;17.80;15.60;;;22.30;64.80;;;;;;5015586;28;20181;-89
2023/07/13 11:24:57;;;;;;;25.60;14.90;;;22.20;65.30;;;;;;5014508;28;20283;-88
2023/07/13 11:27:45;;;;;;;17.38;15.63;;;22.60;64.80;;;;;;5014011;28;20169;-87
2023/07/13 11:30:29;;;;;;;17.42;15.02;;;22.40;65.00;;;;;;5014217;28;20187;-88
2023/07/13 11:33:21;;;;;;;32.65;17.63;;;22.20;65.40;;;;;;5015149;28;20196;-87
2023/07/13 11:35:56;;;;;;;18.55;15.15;;;21.60;69.00;;;;;;5015143;28;20162;-89
2023/07/13 11:38:27;;;;;;;31.27;14.43;;;20.20;74.90;;;;;;5014165;28;20644;-91
2023/07/13 11:40:55;;;;;;;25.25;14.02;;;19.20;78.80;;;;;;5014315;28;20165;-87
2023/07/13 11:43:23;;;;;;;16.65;12.57;;;19.00;80.20;;;;;;5013945;28;20200;-89
2023/07/13 11:45:49;;;;;;;25.35;12.02;;;19.00;81.80;;;;;;5013818;28;20178;-89
2023/07/13 11:48:21;;;;;;;16.38;11.50;;;19.20;82.90;;;;;;5013853;28;20173;-89
2023/07/13 11:50:56;;;;;;;20.45;10.93;;;19.10;82.90;;;;;;5013811;28;20173;-90
2023/07/13 11:53:22;;;;;;;10.55;9.27;;;18.80;83.70;;;;;;5013591;28;20219;-90
2023/07/13 11:55:47;;;;;;;11.02;9.90;;;18.80;83.70;;;;;;5013761;28;20653;-89
2023/07/13 11:58:18;;;;;;;9.80;8.80;;;18.10;84.70;;;;;;5013810;28;20224;-90
2023/07/13 12:00:45;;;;;;;11.38;8.73;;;17.80;84.60;;;;;;5013629;28;20162;-90
2023/07/13 12:03:12;;;;;;;8.90;8.00;;;17.80;85.50;;;;;;5014579;28;20276;-89
2023/07/13 12:05:54;;;;;;;10.50;8.07;;;17.30;84.30;;;;;;5013839;28;20173;-89
2023/07/13 12:08:20;;;;;;;7.82;7.22;;;17.20;85.10;;;;;;5013799;28;20169;-89
2023/07/13 12:10:47;;;;;;;7.25;6.55;;;17.40;85.30;;;;;;5013555;28;20651;-89
2023/07/13 12:13:13;;;;;;;7.95;6.55;;;17.30;86.10;;;;;;5013245;28;20219;-89
2023/07/13 12:15:41;;;;;;;9.32;7.18;;;17.30;85.90;;;;;;5013639;28;20173;-89
2023/07/13 12:18:19;;;;;;;6.80;5.80;;;17.30;86.30;;;;;;5014931;28;20162;-90
2023/07/13 12:20:46;;;;;;;9.15;6.60;;;17.30;86.20;;;;;;5014959;28;20180;-89
2023/07/13 12:23:28;;;;;;;8.10;6.15;;;17.30;86.40;;;;;;5014969;28;20193;-89
2023/07/13 12:25:54;;;;;;;6.97;5.50;;;17.40;87.10;;;;;;5014502;28;20199;-89
2023/07/13 12:28:35;;;;;;;9.75;5.88;;;17.60;86.90;;;;;;5013334;28;20258;-91
2023/07/13 12:31:07;;;;;;;7.82;5.75;;;17.60;86.70;;;;;;5013428;28;20193;-89
2023/07/13 12:33:33;;;;;;;9.45;5.70;;;17.60;86.90;;;;;;5013267;28;20197;-90
2023/07/13 12:36:06;;;;;;;7.68;5.40;;;17.90;87.00;;;;;;5012963;28;20208;-88
2023/07/13 12:38:32;;;;;;;8.63;6.00;;;17.80;86.40;;;;;;5013045;28;20169;-88
2023/07/13 12:40:58;;;;;;;16.95;6.25;;;17.90;86.20;;;;;;5012853;28;20312;-88